createdAt,value
2019-04-05T00:01:18.744Z,5.70
2019-04-05T00:03:48.943Z,5.80
2019-04-05T00:06:19.133Z,6.23
2019-04-05T00:08:49.404Z,6.57
2019-04-05T00:11:19.678Z,6.13
2019-04-05T00:13:49.876Z,5.57
2019-04-05T00:16:20.200Z,6.13
2019-04-05T00:18:50.381Z,6.27
2019-04-05T00:21:22.235Z,6.07
2019-04-05T00:23:52.437Z,5.73
2019-04-05T00:26:22.612Z,6.90
2019-04-05T00:28:52.840Z,6.00
2019-04-05T00:31:23.083Z,6.30
2019-04-05T00:33:53.375Z,5.57
2019-04-05T00:36:23.648Z,6.20
2019-04-05T00:38:56.098Z,5.83
2019-04-05T00:41:26.296Z,5.87
2019-04-05T00:43:56.703Z,5.53
2019-04-05T00:46:26.987Z,5.60
2019-04-05T00:48:57.276Z,6.07
2019-04-05T00:51:27.562Z,6.20
2019-04-05T00:53:57.799Z,6.20
2019-04-05T00:56:28.083Z,6.27
2019-04-05T00:58:58.444Z,6.37
2019-04-05T01:01:28.817Z,6.40
2019-04-05T01:03:59.031Z,6.27
2019-04-05T01:06:29.284Z,6.20
2019-04-05T01:08:59.581Z,6.03
2019-04-05T01:11:29.839Z,6.63
2019-04-05T01:14:00.017Z,6.47
2019-04-05T01:16:30.191Z,6.33
2019-04-05T01:19:00.429Z,6.07
2019-04-05T01:21:35.810Z,5.90
2019-04-05T01:24:06.977Z,6.57
2019-04-05T01:26:38.781Z,6.87
2019-04-05T01:29:09.026Z,6.47
2019-04-05T01:31:39.201Z,6.80
2019-04-05T01:34:09.446Z,6.23
2019-04-05T01:36:39.724Z,6.93
2019-04-05T01:39:09.966Z,6.27
2019-04-05T01:41:40.339Z,6.43
2019-04-05T01:44:10.989Z,6.43
2019-04-05T01:46:41.195Z,6.27
2019-04-05T01:49:11.427Z,6.33
2019-04-05T01:51:42.288Z,6.20
2019-04-05T01:54:14.593Z,6.67
2019-04-05T01:56:44.864Z,6.00
2019-04-05T01:59:15.012Z,6.77
2019-04-05T02:01:45.265Z,6.50
2019-04-05T02:04:15.511Z,6.77
2019-04-05T02:06:45.693Z,6.93
2019-04-05T02:09:15.970Z,6.47
2019-04-05T02:11:46.167Z,6.53
2019-04-05T02:14:16.454Z,6.93
2019-04-05T02:16:46.670Z,6.73
2019-04-05T02:19:16.906Z,7.23
2019-04-05T02:21:47.276Z,6.83
2019-04-05T02:24:17.660Z,7.13
2019-04-05T02:26:47.837Z,7.00
2019-04-05T02:29:18.013Z,6.43
2019-04-05T02:31:48.277Z,7.27
2019-04-05T02:34:18.435Z,7.10
2019-04-05T02:36:48.650Z,7.50
2019-04-05T02:39:18.947Z,6.90
2019-04-05T02:41:49.708Z,6.40
2019-04-05T02:44:21.475Z,6.70
2019-04-05T02:46:53.044Z,6.77
2019-04-05T02:49:25.571Z,7.13
2019-04-05T02:51:57.138Z,7.60
2019-04-05T02:54:27.691Z,7.17
2019-04-05T02:56:58.937Z,7.37
2019-04-05T02:59:30.166Z,7.07
2019-04-05T03:02:00.926Z,6.77
2019-04-05T03:04:31.087Z,6.40
2019-04-05T03:07:01.795Z,6.80
2019-04-05T03:09:32.330Z,6.27
2019-04-05T03:12:02.521Z,6.57
2019-04-05T03:14:33.160Z,6.27
2019-04-05T03:17:03.817Z,6.67
2019-04-05T03:19:36.278Z,6.63
2019-04-05T03:22:09.008Z,6.60
2019-04-05T03:24:41.641Z,6.57
2019-04-05T03:27:25.201Z,6.93
2019-04-05T03:29:56.163Z,6.60
2019-04-05T03:32:26.989Z,6.57
2019-04-05T03:34:57.593Z,6.67
2019-04-05T03:37:27.765Z,6.60
2019-04-05T03:39:58.278Z,6.93
2019-04-05T03:42:28.650Z,7.40
2019-04-05T03:44:59.141Z,6.43
2019-04-05T03:47:29.400Z,6.53
2019-04-05T03:49:59.577Z,6.30
2019-04-05T03:52:29.843Z,7.33
2019-04-05T03:55:00.074Z,6.93
2019-04-05T03:57:30.340Z,6.40
2019-04-05T04:00:00.634Z,7.73
2019-04-05T04:02:30.842Z,7.40
2019-04-05T04:05:01.113Z,8.10
2019-04-05T04:07:32.876Z,6.53
2019-04-05T04:10:03.208Z,6.80
2019-04-05T04:12:33.435Z,7.70
2019-04-05T04:15:14.136Z,7.27
2019-04-05T04:17:46.105Z,8.00
2019-04-05T04:20:38.702Z,6.97
2019-04-05T04:23:09.793Z,7.53
2019-04-05T04:25:40.573Z,7.57
2019-04-05T04:28:11.630Z,7.10
2019-04-05T04:30:41.801Z,7.43
2019-04-05T04:33:12.717Z,7.30
2019-04-05T04:35:43.179Z,7.70
2019-04-05T04:38:13.357Z,7.33
2019-04-05T04:40:43.613Z,7.03
2019-04-05T04:43:14.441Z,7.03
2019-04-05T04:45:44.716Z,7.07
2019-04-05T04:48:15.167Z,7.10
2019-04-05T04:50:45.550Z,6.47
2019-04-05T04:53:16.245Z,6.80
2019-04-05T04:55:46.613Z,6.07
2019-04-05T04:58:16.855Z,5.80
2019-04-05T05:00:47.337Z,6.20
2019-04-05T05:03:17.706Z,6.47
2019-04-05T05:05:47.897Z,5.90
2019-04-05T05:08:18.448Z,6.23
2019-04-05T05:10:48.677Z,6.80
2019-04-05T05:13:18.963Z,6.30
2019-04-05T05:15:49.224Z,6.77
2019-04-05T05:18:19.796Z,6.00
2019-04-05T05:20:50.077Z,5.57
2019-04-05T05:23:20.435Z,6.67
2019-04-05T05:25:51.180Z,7.53
2019-04-05T05:28:21.506Z,7.63
2019-04-05T05:30:51.861Z,8.00
2019-04-05T05:33:22.172Z,8.43
2019-04-05T05:35:52.421Z,9.00
2019-04-05T05:38:22.807Z,9.10
2019-04-05T05:40:53.000Z,9.20
2019-04-05T05:43:24.015Z,8.67
2019-04-05T05:45:54.354Z,8.03
2019-04-05T05:48:24.677Z,7.30
2019-04-05T05:50:54.957Z,7.00
2019-04-05T05:53:25.385Z,6.73
2019-04-05T05:55:55.557Z,7.43
2019-04-05T05:58:26.466Z,7.23
2019-04-05T06:00:56.777Z,6.20
2019-04-05T06:03:26.944Z,6.33
2019-04-05T06:06:04.261Z,9.03
2019-04-05T06:08:29.367Z,7.67
2019-04-05T06:10:59.724Z,9.07
2019-04-05T06:13:29.975Z,8.90
2019-04-05T06:16:00.282Z,9.27
2019-04-05T06:18:30.584Z,10.00
2019-04-05T06:21:03.316Z,9.27
2019-04-05T06:23:33.822Z,9.60
2019-04-05T06:26:04.506Z,9.27
2019-04-05T06:28:34.805Z,9.87
2019-04-05T06:31:05.054Z,8.70
2019-04-05T06:33:35.966Z,9.63
2019-04-05T06:36:06.191Z,8.60
2019-04-05T06:38:36.487Z,8.20
2019-04-05T06:41:06.654Z,9.30
2019-04-05T06:43:36.875Z,7.87
2019-04-05T06:46:07.149Z,8.23
2019-04-05T06:48:37.435Z,8.47
2019-04-05T06:51:07.652Z,7.93
2019-04-05T06:53:37.872Z,8.87
2019-04-05T06:56:08.024Z,8.47
2019-04-05T06:58:38.249Z,8.93
2019-04-05T07:01:09.562Z,9.23
2019-04-05T07:03:40.675Z,8.90
2019-04-05T07:06:10.888Z,9.43
2019-04-05T07:08:52.976Z,8.77
2019-04-05T07:11:14.034Z,9.37
2019-04-05T07:13:44.230Z,9.50
2019-04-05T07:16:14.406Z,8.93
2019-04-05T07:18:44.700Z,9.43
2019-04-05T07:21:17.291Z,9.57
2019-04-05T07:23:46.868Z,10.27
2019-04-05T07:26:17.138Z,10.23
2019-04-05T07:28:47.329Z,10.50
2019-04-05T07:31:17.610Z,11.30
2019-04-05T07:33:47.824Z,10.67
2019-04-05T07:36:18.013Z,11.33
2019-04-05T07:38:48.434Z,10.97
2019-04-05T07:41:18.650Z,11.37
2019-04-05T07:43:48.868Z,10.70
2019-04-05T07:46:19.127Z,12.30
2019-04-05T07:48:49.468Z,11.83
2019-04-05T07:51:22.511Z,10.97
2019-04-05T07:53:51.567Z,11.70
2019-04-05T07:56:21.833Z,11.67
2019-04-05T07:58:52.020Z,12.50
2019-04-05T08:01:22.212Z,11.97
2019-04-05T08:03:52.493Z,11.53
2019-04-05T08:06:22.707Z,12.37
2019-04-05T08:09:02.084Z,12.20
2019-04-05T08:11:31.702Z,12.70
2019-04-05T08:14:03.013Z,12.90
2019-04-05T08:16:33.263Z,12.80
2019-04-05T08:19:03.545Z,12.70
2019-04-05T08:21:33.810Z,12.40
2019-04-05T08:24:04.242Z,13.03
2019-04-05T08:26:34.424Z,13.67
2019-04-05T08:29:04.922Z,13.27
2019-04-05T08:31:35.119Z,12.73
2019-04-05T08:34:05.530Z,15.13
2019-04-05T08:36:35.782Z,13.33
2019-04-05T08:39:07.993Z,13.50
2019-04-05T08:41:38.278Z,13.40
2019-04-05T08:44:09.940Z,13.43
2019-04-05T08:46:40.152Z,14.80
2019-04-05T08:49:11.670Z,13.47
2019-04-05T08:51:42.148Z,13.43
2019-04-05T08:54:12.449Z,13.30
2019-04-05T08:56:42.726Z,13.70
2019-04-05T08:59:12.979Z,13.67
2019-04-05T09:01:43.267Z,14.77
2019-04-05T09:04:13.472Z,14.57
2019-04-05T09:06:43.676Z,15.27
2019-04-05T09:09:13.886Z,13.80
2019-04-05T09:11:44.085Z,15.27
2019-04-05T09:14:14.371Z,14.90
2019-04-05T09:16:44.659Z,15.30
2019-04-05T09:19:23.484Z,15.37
2019-04-05T09:21:46.848Z,14.90
2019-04-05T09:24:17.137Z,14.13
2019-04-05T09:26:47.503Z,15.83
2019-04-05T09:29:17.773Z,14.13
2019-04-05T09:31:48.101Z,16.33
2019-04-05T09:34:18.373Z,17.07
2019-04-05T09:36:48.578Z,14.67
2019-04-05T09:39:18.921Z,14.97
2019-04-05T09:41:49.185Z,14.93
2019-04-05T09:44:19.399Z,14.40
2019-04-05T09:46:51.310Z,14.23
2019-04-05T09:49:21.752Z,14.70
2019-04-05T09:51:52.065Z,14.83
2019-04-05T09:54:22.328Z,14.73
2019-04-05T09:56:52.610Z,16.03
2019-04-05T09:59:22.807Z,13.83
2019-04-05T10:01:53.106Z,13.80
2019-04-05T10:04:23.384Z,14.07
2019-04-05T10:06:53.684Z,15.87
2019-04-05T10:09:23.896Z,9.60
2019-04-05T10:11:54.213Z,11.50
2019-04-05T10:14:24.381Z,9.20
2019-04-05T10:16:54.665Z,10.63
2019-04-05T10:19:25.028Z,14.30
2019-04-05T10:21:55.233Z,15.07
2019-04-05T10:24:25.469Z,18.87
2019-04-05T10:26:55.685Z,19.23
2019-04-05T10:29:25.937Z,20.47
2019-04-05T10:31:56.161Z,15.00
2019-04-05T10:34:26.432Z,14.10
2019-04-05T10:36:56.656Z,13.50
2019-04-05T10:39:26.910Z,13.70
2019-04-05T10:42:03.505Z,14.63
2019-04-05T10:44:29.201Z,13.40
2019-04-05T10:46:59.470Z,13.93
2019-04-05T10:49:29.672Z,15.03
2019-04-05T10:52:00.553Z,13.90
2019-04-05T10:54:30.754Z,13.73
2019-04-05T10:57:00.947Z,16.23
2019-04-05T10:59:31.148Z,14.77
2019-04-05T11:02:01.457Z,13.57
2019-04-05T11:04:31.648Z,14.33
2019-04-05T11:07:01.953Z,12.77
2019-04-05T11:09:32.143Z,12.87
2019-04-05T11:12:02.328Z,12.60
2019-04-05T11:14:32.581Z,12.83
2019-04-05T11:17:04.996Z,12.47
2019-04-05T11:19:36.339Z,12.53
2019-04-05T11:22:06.668Z,11.77
2019-04-05T11:24:36.940Z,12.57
2019-04-05T11:27:07.233Z,11.53
2019-04-05T11:29:37.492Z,11.93
2019-04-05T11:32:07.740Z,10.43
2019-04-05T11:34:37.940Z,10.57
2019-04-05T11:37:08.225Z,11.40
2019-04-05T11:39:38.728Z,12.63
2019-04-05T11:42:08.993Z,11.40
2019-04-05T11:44:41.087Z,12.10
2019-04-05T11:47:12.237Z,11.83
2019-04-05T11:49:45.307Z,14.47
2019-04-05T11:52:15.529Z,12.57
2019-04-05T11:54:46.055Z,11.07
2019-04-05T11:57:16.988Z,10.90
2019-04-05T11:59:48.788Z,12.83
2019-04-05T12:02:24.028Z,16.37
2019-04-05T12:04:55.663Z,14.43
2019-04-05T12:07:26.664Z,11.70
2019-04-05T12:09:57.753Z,11.33
2019-04-05T12:12:28.056Z,10.60
2019-04-05T12:14:58.265Z,10.07
2019-04-05T12:17:28.451Z,9.60
2019-04-05T12:20:00.587Z,9.27
2019-04-05T12:22:32.641Z,9.00
2019-04-05T12:25:02.984Z,8.53
2019-04-05T12:27:33.913Z,9.07
2019-04-05T12:30:04.924Z,8.73
2019-04-05T12:32:41.099Z,8.20
2019-04-05T12:35:08.501Z,8.03
2019-04-05T12:37:49.659Z,7.93
2019-04-05T12:40:11.266Z,11.30
2019-04-05T12:42:43.549Z,8.77
2019-04-05T12:45:15.308Z,8.10
2019-04-05T12:47:46.094Z,8.67
2019-04-05T12:50:16.604Z,8.70
2019-04-05T12:52:46.944Z,9.57
2019-04-05T12:55:17.153Z,9.30
2019-04-05T12:57:48.487Z,8.90
2019-04-05T13:00:20.103Z,8.30
2019-04-05T13:02:50.970Z,9.03
2019-04-05T13:05:21.755Z,9.33
2019-04-05T13:07:52.589Z,9.73
2019-04-05T13:10:26.163Z,10.20
2019-04-05T13:12:57.782Z,9.43
2019-04-05T13:15:27.422Z,9.87
2019-04-05T13:18:00.317Z,9.30
2019-04-05T13:20:30.430Z,10.40
2019-04-05T13:23:04.285Z,9.97
2019-04-05T13:25:33.021Z,11.10
2019-04-05T13:28:12.840Z,10.43
2019-04-05T13:30:35.132Z,14.63
2019-04-05T13:33:05.527Z,11.40
2019-04-05T13:35:35.713Z,10.67
2019-04-05T13:38:05.986Z,9.83
2019-04-05T13:40:36.513Z,10.20
2019-04-05T13:43:06.746Z,12.20
2019-04-05T13:45:37.028Z,11.30
2019-04-05T13:48:09.024Z,9.33
2019-04-05T13:50:41.395Z,8.97
2019-04-05T13:53:11.787Z,9.13
2019-04-05T13:55:42.178Z,8.97
2019-04-05T13:58:12.531Z,9.33
2019-04-05T14:00:42.709Z,9.90
2019-04-05T14:03:13.013Z,10.93
2019-04-05T14:05:43.318Z,11.10
2019-04-05T14:08:13.607Z,12.70
2019-04-05T14:10:43.865Z,12.60
2019-04-05T14:13:14.124Z,15.67
2019-04-05T14:15:44.430Z,14.53
2019-04-05T14:18:15.426Z,12.20
2019-04-05T14:20:49.574Z,11.80
2019-04-05T14:23:17.810Z,10.73
2019-04-05T14:25:48.146Z,10.20
2019-04-05T14:28:18.433Z,8.80
2019-04-05T14:30:48.735Z,9.50
2019-04-05T14:33:18.947Z,14.07
2019-04-05T14:35:49.169Z,11.90
2019-04-05T14:38:19.340Z,9.73
2019-04-05T14:40:49.537Z,8.87
2019-04-05T14:43:21.339Z,10.33
2019-04-05T14:45:51.773Z,9.87
2019-04-05T14:48:21.936Z,9.00
2019-04-05T14:50:52.204Z,9.00
2019-04-05T14:53:22.569Z,8.67
2019-04-05T14:55:52.743Z,8.73
2019-04-05T14:58:23.021Z,8.93
2019-04-05T15:00:53.292Z,8.93
2019-04-05T15:03:23.502Z,9.20
2019-04-05T15:05:54.567Z,9.57
2019-04-05T15:08:24.834Z,8.80
2019-04-05T15:10:56.864Z,8.97
2019-04-05T15:13:26.968Z,10.57
2019-04-05T15:15:57.256Z,8.93
2019-04-05T15:18:27.580Z,10.97
2019-04-05T15:20:57.805Z,9.90
2019-04-05T15:23:28.055Z,9.17
2019-04-05T15:25:58.280Z,9.93
2019-04-05T15:28:28.562Z,10.03
2019-04-05T15:30:59.062Z,11.20
2019-04-05T15:33:29.445Z,13.37
2019-04-05T15:36:02.934Z,37.97
2019-04-05T15:38:32.452Z,17.97
2019-04-05T15:41:02.854Z,10.90
2019-04-05T15:43:33.088Z,11.00
2019-04-05T15:46:03.463Z,9.83
2019-04-05T15:48:33.739Z,8.93
2019-04-05T15:51:04.116Z,9.30
2019-04-05T15:53:34.313Z,9.10
2019-04-05T15:56:05.051Z,9.03
2019-04-05T15:58:35.293Z,9.23
2019-04-05T16:01:05.967Z,9.00
2019-04-05T16:03:37.017Z,10.00
2019-04-05T16:06:07.431Z,10.13
2019-04-05T16:08:37.621Z,9.73
2019-04-05T16:11:07.903Z,9.40
2019-04-05T16:13:38.161Z,9.10
2019-04-05T16:16:08.360Z,9.20
2019-04-05T16:18:38.625Z,9.87
2019-04-05T16:21:08.909Z,9.57
2019-04-05T16:23:39.169Z,9.83
2019-04-05T16:26:09.458Z,10.27
2019-04-05T16:28:41.086Z,9.60
2019-04-05T16:31:11.534Z,9.37
2019-04-05T16:33:41.784Z,10.17
2019-04-05T16:36:12.119Z,9.23
2019-04-05T16:38:42.465Z,9.27
2019-04-05T16:41:12.753Z,10.63
2019-04-05T16:43:42.983Z,10.53
2019-04-05T16:46:13.315Z,10.33
2019-04-05T16:48:43.534Z,10.73
2019-04-05T16:51:13.754Z,10.03
2019-04-05T16:54:00.207Z,9.60
2019-04-05T16:56:30.526Z,10.73
2019-04-05T16:59:00.821Z,10.53
2019-04-05T17:01:31.164Z,9.70
2019-04-05T17:04:01.348Z,10.00
2019-04-05T17:06:31.665Z,10.90
2019-04-05T17:09:05.173Z,10.07
2019-04-05T17:11:35.521Z,9.93
2019-04-05T17:14:05.814Z,10.20
2019-04-05T17:16:37.025Z,9.90
2019-04-05T17:19:08.003Z,21.73
2019-04-05T17:21:38.271Z,19.47
2019-04-05T17:24:08.549Z,13.87
2019-04-05T17:26:40.063Z,13.00
2019-04-05T17:29:10.968Z,11.20
2019-04-05T17:31:42.384Z,10.30
2019-04-05T17:34:13.919Z,10.27
2019-04-05T17:36:44.245Z,9.17
2019-04-05T17:39:14.441Z,10.80
2019-04-05T17:41:44.741Z,10.87
2019-04-05T17:44:15.022Z,9.67
2019-04-05T17:46:45.346Z,10.23
2019-04-05T17:49:15.617Z,10.67
2019-04-05T17:51:45.901Z,11.27
2019-04-05T17:54:16.113Z,9.93
2019-04-05T17:56:46.434Z,11.23
2019-04-05T17:59:17.242Z,11.03
2019-04-05T18:01:47.576Z,11.33
2019-04-05T18:04:17.896Z,11.67
2019-04-05T18:06:48.201Z,11.97
2019-04-05T18:09:18.494Z,11.80
2019-04-05T18:11:48.836Z,11.20
2019-04-05T18:14:19.132Z,10.70
2019-04-05T18:16:49.364Z,11.33
2019-04-05T18:19:19.661Z,12.13
2019-04-05T18:21:49.957Z,12.07
2019-04-05T18:24:20.225Z,11.60
2019-04-05T18:26:50.527Z,12.03
2019-04-05T18:29:20.810Z,11.17
2019-04-05T18:31:51.116Z,11.43
2019-04-05T18:34:21.324Z,11.53
2019-04-05T18:36:52.919Z,12.03
2019-04-05T18:39:23.278Z,11.80
2019-04-05T18:41:53.566Z,11.00
2019-04-05T18:44:23.832Z,11.60
2019-04-05T18:46:54.116Z,10.80
2019-04-05T18:49:24.562Z,12.03
2019-04-05T18:51:54.820Z,11.90
2019-04-05T18:54:25.115Z,11.33
2019-04-05T18:56:55.389Z,10.70
2019-04-05T18:59:25.726Z,10.97
2019-04-05T19:01:56.093Z,11.07
2019-04-05T19:04:26.393Z,10.77
2019-04-05T19:06:56.855Z,11.07
2019-04-05T19:09:28.482Z,11.40
2019-04-05T19:11:58.826Z,10.90
2019-04-05T19:14:30.461Z,11.77
2019-04-05T19:17:01.854Z,10.63
2019-04-05T19:19:32.896Z,10.73
2019-04-05T19:22:04.225Z,11.23
2019-04-05T19:24:34.533Z,11.37
2019-04-05T19:27:04.908Z,11.13
2019-04-05T19:29:35.263Z,11.27
2019-04-05T19:50:09.138Z,10.43
2019-04-05T19:52:39.478Z,11.73
2019-04-05T19:55:09.976Z,9.90
2019-04-05T19:57:40.196Z,11.13
2019-04-05T20:00:10.613Z,11.53
2019-04-05T20:02:40.894Z,10.50
2019-04-05T20:05:11.214Z,10.63
2019-04-05T20:07:41.593Z,10.77
2019-04-05T20:10:11.883Z,11.37
2019-04-05T20:12:42.204Z,12.10
2019-04-05T20:15:13.103Z,10.43
2019-04-05T20:17:43.429Z,10.57
2019-04-05T20:20:13.887Z,10.60
2019-04-05T20:22:44.088Z,10.10
2019-04-05T20:25:14.332Z,11.17
2019-04-05T20:27:44.684Z,10.83
2019-04-05T20:30:15.364Z,11.00
2019-04-05T20:32:45.681Z,11.43
2019-04-05T20:35:16.009Z,10.80
2019-04-05T20:37:46.324Z,11.57
2019-04-05T20:40:16.571Z,11.13
2019-04-05T20:42:46.812Z,11.30
2019-04-05T20:45:17.143Z,10.40
2019-04-05T20:47:47.315Z,11.00
2019-04-05T20:50:17.630Z,11.07
2019-04-05T20:52:47.916Z,10.90
2019-04-05T20:55:18.269Z,11.60
2019-04-05T20:57:48.453Z,11.10
2019-04-05T21:00:18.986Z,10.50
2019-04-05T21:02:49.202Z,10.97
2019-04-05T21:05:25.346Z,10.63
2019-04-05T21:07:51.371Z,11.23
2019-04-05T21:10:21.768Z,10.50
2019-04-05T21:12:52.003Z,11.17
2019-04-05T21:15:22.260Z,10.47
2019-04-05T21:17:52.460Z,11.33
2019-04-05T21:20:22.705Z,11.67
2019-04-05T21:22:52.977Z,12.00
2019-04-05T21:25:23.287Z,11.73
2019-04-05T21:27:53.476Z,12.33
2019-04-05T21:30:23.783Z,12.40
2019-04-05T21:32:54.043Z,12.17
2019-04-05T21:35:24.332Z,13.57
2019-04-05T21:37:54.618Z,12.80
2019-04-05T21:40:24.856Z,12.83
2019-04-05T21:42:55.074Z,13.27
2019-04-05T21:45:25.316Z,13.17
2019-04-05T21:47:55.526Z,13.90
2019-04-05T21:50:25.776Z,12.47
2019-04-05T21:52:56.042Z,12.47
2019-04-05T21:55:26.460Z,12.77
2019-04-05T21:57:56.731Z,12.73
2019-04-05T22:00:30.943Z,13.00
2019-04-05T22:03:01.208Z,13.03
2019-04-05T22:05:31.459Z,13.30
2019-04-05T22:08:01.717Z,12.77
2019-04-05T22:10:32.001Z,13.13
2019-04-05T22:13:04.379Z,12.87
2019-04-05T22:15:34.260Z,12.83
2019-04-05T22:18:04.523Z,13.37
2019-04-05T22:20:34.691Z,13.20
2019-04-05T22:23:04.884Z,13.57
2019-04-05T22:25:35.159Z,13.10
2019-04-05T22:28:05.544Z,13.33
2019-04-05T22:30:35.795Z,12.43
2019-04-05T22:33:06.060Z,13.27
2019-04-05T22:35:36.287Z,14.00
2019-04-05T22:38:06.491Z,13.67
2019-04-05T22:40:36.699Z,14.43
2019-04-05T22:43:06.896Z,13.07
2019-04-05T22:45:37.103Z,13.23
2019-04-05T22:48:07.312Z,13.40
2019-04-05T22:50:37.532Z,15.17
2019-04-05T22:53:07.717Z,14.93
2019-04-05T22:55:37.987Z,14.30
2019-04-05T22:58:08.270Z,14.50
2019-04-05T23:00:38.522Z,14.03
2019-04-05T23:03:08.710Z,13.67
2019-04-05T23:05:38.916Z,14.23
2019-04-05T23:08:09.193Z,12.80
2019-04-05T23:10:39.494Z,12.93
2019-04-05T23:13:09.836Z,13.00
2019-04-05T23:15:40.133Z,13.03
2019-04-05T23:18:10.385Z,13.13
2019-04-05T23:20:40.586Z,14.13
2019-04-05T23:23:10.855Z,13.47
2019-04-05T23:25:41.077Z,13.50
2019-04-05T23:28:11.327Z,14.20
2019-04-05T23:30:41.604Z,13.97
2019-04-05T23:33:11.861Z,13.23
2019-04-05T23:35:42.050Z,13.13
2019-04-05T23:38:12.354Z,14.07
2019-04-05T23:40:42.655Z,13.97
2019-04-05T23:43:12.905Z,12.87
2019-04-05T23:45:43.214Z,13.63
2019-04-05T23:48:13.447Z,14.27
2019-04-05T23:50:43.656Z,14.30
2019-04-05T23:53:13.854Z,14.90
2019-04-05T23:55:44.064Z,13.63
2019-04-05T23:58:14.250Z,13.93
